| time (UTC) | temp F | wind direction | speed MPH | gust MPH | rain 1hr in | rain 24hr in | rain mn in | humidity % | barometer mb |
| 20260502170204 | 71 | 60 | 1.0 | 5.0 | 0.00 | 3.23 | 0.00 | 59 | 1018.4 |
| 20260502164203 | 71 | 129 | 1.0 | 5.0 | 0.00 | 3.23 | 0.00 | 59 | 1018.2 |
| 20260502163704 | 71 | 216 | 1.0 | 5.0 | 0.00 | 3.23 | 0.00 | 62 | 1018.2 |
| 20260502162704 | 70 | 91 | 1.0 | 3.0 | 0.00 | 3.30 | 0.00 | 64 | 1018.2 |
| 20260502162204 | 70 | 263 | 1.0 | 3.0 | 0.00 | 3.63 | 0.00 | 64 | 1018.2 |
| 20260502161704 | 69 | 243 | 0.0 | 3.0 | 0.00 | 3.63 | 0.00 | 65 | 1018.2 |
| 20260502161204 | 69 | 301 | 1.0 | 3.0 | 0.00 | 3.63 | 0.00 | 64 | 1018.3 |
| 20260502160704 | 68 | 267 | 1.0 | 6.0 | 0.00 | 3.63 | 0.00 | 65 | 1018.2 |
| 20260502160204 | 68 | 40 | 1.0 | 6.0 | 0.00 | 3.63 | 0.00 | 66 | 1018.2 |
| 20260502152204 | 66 | 95 | 1.0 | 2.0 | 0.00 | 3.74 | 0.00 | 71 | 1018.1 |
| 20260502151704 | 66 | 98 | 1.0 | 3.0 | 0.00 | 3.74 | 0.00 | 73 | 1018.2 |
| 20260502151204 | 66 | 83 | 1.0 | 5.0 | 0.00 | 3.74 | 0.00 | 73 | 1018.2 |
| 20260502150704 | 65 | 111 | 1.0 | 3.0 | 0.00 | 3.74 | 0.00 | 75 | 1018.2 |
| 20260502150204 | 65 | 87 | 1.0 | 3.0 | 0.00 | 3.74 | 0.00 | 76 | 1018.2 |
| 20260502130705 | 55 | 126 | 2.0 | 3.0 | 0.00 | 3.82 | 0.00 | 97 | 1016.9 |
| 20260502130204 | 54 | 71 | 1.0 | 2.0 | 0.00 | 3.82 | 0.00 | 98 | 1016.9 |
| 20260502123704 | 53 | 101 | 1.0 | 2.0 | 0.00 | 3.82 | 0.00 | 98 | 1016.6 |
| 20260502123203 | 53 | 130 | 1.0 | 2.0 | 0.00 | 3.83 | 0.00 | 98 | 1016.6 |
| 20260502122704 | 53 | 91 | 0.0 | 1.0 | 0.00 | 3.84 | 0.00 | 98 | 1016.5 |
| 20260502122204 | 53 | 123 | 1.0 | 1.0 | 0.00 | 3.84 | 0.00 | 98 | 1016.3 |
| 20260502121705 | 53 | 97 | 1.0 | 3.0 | 0.00 | 3.84 | 0.00 | 98 | 1016.2 |
| 20260502121204 | 53 | 144 | 1.0 | 2.0 | 0.00 | 3.84 | 0.00 | 98 | 1016.3 |
| 20260502120704 | 53 | 123 | 1.0 | 1.0 | 0.00 | 3.84 | 0.00 | 98 | 1016.3 |
| 20260502120204 | 53 | 110 | 0.0 | 1.0 | 0.00 | 3.84 | 0.00 | 98 | 1016.2 |
| 20260502115703 | 53 | 107 | 1.0 | 1.0 | 0.00 | 3.84 | 0.00 | 98 | 1016.2 |
| 20260502115204 | 53 | 118 | 1.0 | 1.0 | 0.00 | 3.84 | 0.00 | 98 | 1016.1 |
| 20260502114704 | 53 | 115 | 1.0 | 2.0 | 0.00 | 3.84 | 0.00 | 98 | 1016.1 |
| 20260502114204 | 53 | 79 | 0.0 | 1.0 | 0.00 | 3.84 | 0.00 | 98 | 1016.2 |
| 20260502112705 | 53 | 54 | 1.0 | 2.0 | 0.00 | 3.84 | 0.00 | 98 | 1016.0 |
| 20260502112204 | 53 | 157 | 1.0 | 1.0 | 0.00 | 3.84 | 0.00 | 97 | 1015.9 |
| 20260502111204 | 53 | 84 | 0.0 | 1.0 | 0.00 | 3.84 | 0.00 | 97 | 1015.8 |
| 20260502110704 | 53 | 131 | 1.0 | 1.0 | 0.00 | 3.84 | 0.00 | 97 | 1015.7 |
| 20260502110204 | 53 | 89 | 1.0 | 1.0 | 0.00 | 3.84 | 0.00 | 97 | 1015.6 |
| 20260502105705 | 53 | 152 | 0.0 | 1.0 | 0.00 | 3.84 | 0.00 | 97 | 1015.5 |
| 20260502105204 | 53 | 98 | 0.0 | 1.0 | 0.00 | 3.84 | 0.00 | 97 | 1015.5 |
| 20260502104704 | 53 | 149 | 1.0 | 2.0 | 0.00 | 3.84 | 0.00 | 97 | 1015.4 |
| 20260502104204 | 53 | 144 | 0.0 | 1.0 | 0.00 | 3.84 | 0.00 | 97 | 1015.3 |
| 20260502103704 | 53 | 128 | 1.0 | 2.0 | 0.00 | 3.84 | 0.00 | 97 | 1015.2 |
| 20260502103203 | 53 | 124 | 1.0 | 2.0 | 0.00 | 3.84 | 0.00 | 97 | 1015.2 |
| 20260502102204 | 53 | 172 | 1.0 | 1.0 | 0.00 | 3.84 | 0.00 | 96 | 1015.1 |
| 20260502101704 | 53 | 137 | 1.0 | 2.0 | 0.00 | 3.90 | 0.00 | 96 | 1015.0 |
| 20260502101203 | 53 | 106 | 0.0 | 1.0 | 0.00 | 3.90 | 0.00 | 96 | 1014.9 |
| 20260502100704 | 54 | 107 | 0.0 | 1.0 | 0.00 | 3.90 | 0.00 | 96 | 1014.8 |
| 20260502100204 | 54 | 165 | 1.0 | 2.0 | 0.00 | 3.90 | 0.00 | 95 | 1014.6 |
| 20260502090704 | 55 | 79 | 1.0 | 2.0 | 0.00 | 4.12 | 0.00 | 93 | 1014.0 |
| 20260502090204 | 55 | 78 | 1.0 | 2.0 | 0.00 | 4.12 | 0.00 | 93 | 1013.8 |
| 20260502071204 | 55 | 88 | 1.0 | 2.0 | 0.00 | 4.29 | 0.00 | 99 | 1013.8 |
| 20260502070204 | 55 | 119 | 1.0 | 3.0 | 0.00 | 4.32 | 0.00 | 99 | 1013.8 |
| 20260502065704 | 55 | 112 | 1.0 | 2.0 | 0.00 | 4.32 | 0.00 | 99 | 1013.8 |
| 20260502064704 | 55 | 109 | 1.0 | 2.0 | 0.00 | 4.33 | 0.00 | 99 | 1013.7 |
| 20260502064204 | 55 | 95 | 1.0 | 2.0 | 0.00 | 4.33 | 0.00 | 99 | 1013.7 |
| 20260502063704 | 55 | 89 | 1.0 | 2.0 | 0.00 | 4.33 | 0.00 | 99 | 1013.6 |
| 20260502063204 | 55 | 112 | 1.0 | 2.0 | 0.00 | 4.33 | 0.00 | 99 | 1013.5 |
| 20260502062204 | 56 | 89 | 1.0 | 3.0 | 0.00 | 4.38 | 0.00 | 99 | 1013.6 |
| 20260502061706 | 56 | 33 | 3.0 | 3.0 | 0.00 | 4.38 | 0.00 | 99 | 1013.6 |
| 20260502061204 | 56 | 32 | 2.0 | 3.0 | 0.00 | 4.38 | 0.00 | 99 | 1013.5 |
| 20260502060704 | 56 | 26 | 2.0 | 3.0 | 0.00 | 4.38 | 0.00 | 99 | 1013.5 |
| 20260502060204 | 56 | 26 | 3.0 | 5.0 | 0.00 | 4.38 | 0.00 | 99 | 1013.3 |
| 20260502055704 | 56 | 36 | 2.0 | 3.0 | 0.00 | 4.38 | 0.00 | 99 | 1013.3 |
| 20260502055204 | 56 | 33 | 2.0 | 3.0 | 0.00 | 4.39 | 0.00 | 99 | 1013.4 |
| 20260502054703 | 56 | 36 | 2.0 | 3.0 | 0.00 | 4.39 | 0.00 | 99 | 1013.4 |
| 20260502053705 | 56 | 32 | 2.0 | 3.0 | 0.00 | 4.40 | 0.00 | 99 | 1013.4 |
| 20260502053204 | 56 | 36 | 3.0 | 5.0 | 0.00 | 4.40 | 0.00 | 99 | 1013.4 |
| 20260502052704 | 56 | 34 | 2.0 | 3.0 | 0.00 | 4.41 | 0.00 | 99 | 1013.4 |
| 20260502052204 | 56 | 39 | 2.0 | 3.0 | 0.00 | 4.43 | 0.00 | 99 | 1013.5 |
| 20260502051704 | 56 | 35 | 3.0 | 5.0 | 0.00 | 4.48 | 0.00 | 99 | 1013.4 |
| 20260502051204 | 56 | 29 | 3.0 | 3.0 | 0.00 | 4.48 | 0.00 | 99 | 1013.5 |
| 20260502050704 | 56 | 33 | 2.0 | 3.0 | 0.00 | 4.49 | 0.00 | 99 | 1013.4 |
| 20260502050204 | 56 | 39 | 2.0 | 3.0 | 0.00 | 4.49 | 0.00 | 100 | 1013.4 |
| 20260502045704 | 56 | 35 | 2.0 | 3.0 | 0.00 | 4.49 | 3.95 | 100 | 1013.4 |
| 20260502045204 | 56 | 31 | 3.0 | 3.0 | 0.00 | 4.49 | 3.95 | 100 | 1013.4 |
| 20260502044704 | 56 | 32 | 2.0 | 5.0 | 0.00 | 4.49 | 3.95 | 100 | 1013.5 |
| 20260502043704 | 56 | 30 | 2.0 | 3.0 | 0.02 | 4.49 | 3.95 | 100 | 1013.6 |
| 20260502043204 | 56 | 30 | 2.0 | 3.0 | 0.02 | 4.49 | 3.95 | 100 | 1013.5 |
| 20260502042704 | 56 | 34 | 3.0 | 3.0 | 0.02 | 4.49 | 3.95 | 100 | 1013.5 |
| 20260502042204 | 56 | 30 | 2.0 | 3.0 | 0.02 | 4.49 | 3.95 | 100 | 1013.4 |
| 20260502041704 | 56 | 36 | 3.0 | 3.0 | 0.02 | 4.49 | 3.95 | 100 | 1013.4 |
| 20260502040703 | 56 | 32 | 2.0 | 5.0 | 0.02 | 4.49 | 3.95 | 100 | 1013.4 |
| 20260502040204 | 56 | 32 | 2.0 | 3.0 | 0.02 | 4.49 | 3.95 | 100 | 1013.4 |
| 20260502035704 | 56 | 25 | 3.0 | 3.0 | 0.02 | 4.49 | 3.95 | 100 | 1013.4 |
| 20260502035204 | 56 | 34 | 3.0 | 3.0 | 0.02 | 4.49 | 3.95 | 100 | 1013.1 |
| 20260502034704 | 56 | 33 | 2.0 | 3.0 | 0.02 | 4.49 | 3.95 | 100 | 1013.1 |
| 20260502033704 | 56 | 44 | 3.0 | 3.0 | 0.00 | 4.47 | 3.93 | 100 | 1013.0 |
| 20260502033204 | 56 | 40 | 2.0 | 3.0 | 0.00 | 4.47 | 3.93 | 100 | 1013.1 |
| 20260502032704 | 57 | 48 | 3.0 | 3.0 | 0.00 | 4.47 | 3.93 | 100 | 1012.9 |
| 20260502032204 | 57 | 42 | 3.0 | 3.0 | 0.03 | 4.47 | 3.93 | 100 | 1012.5 |
| 20260502031204 | 57 | 44 | 2.0 | 3.0 | 0.03 | 4.47 | 3.93 | 100 | 1011.9 |
| 20260502030204 | 57 | 38 | 2.0 | 3.0 | 0.09 | 4.47 | 3.93 | 100 | 1011.8 |
| 20260502025704 | 57 | 42 | 2.0 | 3.0 | 0.09 | 4.47 | 3.93 | 100 | 1011.9 |
| 20260502025204 | 58 | 43 | 3.0 | 3.0 | 0.09 | 4.47 | 3.93 | 100 | 1012.0 |
| 20260502024703 | 58 | 37 | 2.0 | 3.0 | 0.09 | 4.47 | 3.93 | 100 | 1011.7 |
| 20260502024204 | 58 | 38 | 3.0 | 3.0 | 0.09 | 4.47 | 3.93 | 100 | 1011.6 |
| 20260502023704 | 58 | 33 | 2.0 | 3.0 | 0.09 | 4.47 | 3.93 | 100 | 1011.6 |
| 20260502023204 | 58 | 28 | 3.0 | 7.0 | 0.09 | 4.47 | 3.93 | 100 | 1011.6 |
| 20260502022704 | 58 | 27 | 3.0 | 8.0 | 0.09 | 4.47 | 3.93 | 100 | 1011.6 |
| 20260502021704 | 58 | 21 | 2.0 | 5.0 | 0.08 | 4.44 | 3.90 | 100 | 1011.9 |
| 20260502021204 | 58 | 33 | 2.0 | 8.0 | 0.09 | 4.44 | 3.90 | 100 | 1011.6 |
| 20260502020704 | 58 | 89 | 3.0 | 7.0 | 0.09 | 4.44 | 3.90 | 100 | 1011.5 |
| 20260502020204 | 58 | 54 | 3.0 | 7.0 | 0.03 | 4.38 | 3.84 | 100 | 1011.6 |
| 20260502015204 | 58 | 112 | 6.0 | 8.0 | 0.03 | 4.38 | 3.84 | 100 | 1011.6 |
| 20260502014704 | 59 | 108 | 5.0 | 8.0 | 0.03 | 4.38 | 3.84 | 100 | 1011.2 |
| 20260502013704 | 59 | 90 | 2.0 | 9.0 | 0.03 | 4.38 | 3.84 | 100 | 1011.0 |
| 20260502013206 | 59 | 86 | 2.0 | 5.0 | 0.10 | 4.38 | 3.84 | 100 | 1010.5 |
| 20260502012704 | 59 | 31 | 2.0 | 5.0 | 0.10 | 4.38 | 3.84 | 100 | 1010.5 |
| 20260502012204 | 59 | 43 | 3.0 | 5.0 | 0.08 | 4.36 | 3.82 | 100 | 1010.4 |
| 20260502011204 | 59 | 75 | 3.0 | 8.0 | 0.08 | 4.35 | 3.81 | 100 | 1010.7 |
| 20260502010704 | 59 | 82 | 4.0 | 5.0 | 0.07 | 4.35 | 3.81 | 100 | 1010.7 |
| 20260502010204 | 59 | 75 | 3.0 | 5.0 | 0.16 | 4.35 | 3.81 | 100 | 1010.7 |
| 20260502005704 | 59 | 92 | 3.0 | 5.0 | 0.16 | 4.35 | 3.81 | 100 | 1010.4 |
| 20260502005204 | 59 | 82 | 2.0 | 5.0 | 0.16 | 4.35 | 3.81 | 100 | 1009.9 |
| 20260502004704 | 59 | 85 | 2.0 | 5.0 | 0.16 | 4.35 | 3.81 | 100 | 1009.5 |
| 20260502004204 | 59 | 72 | 2.0 | 3.0 | 0.16 | 4.35 | 3.81 | 100 | 1009.3 |
| 20260502003704 | 59 | 82 | 3.0 | 5.0 | 0.16 | 4.35 | 3.81 | 100 | 1009.2 |
| 20260502003204 | 59 | 88 | 3.0 | 5.0 | 0.17 | 4.28 | 3.74 | 100 | 1009.4 |
| 20260502002704 | 59 | 86 | 2.0 | 3.0 | 0.17 | 4.28 | 3.74 | 100 | 1009.5 |
| 20260502002204 | 59 | 69 | 2.0 | 3.0 | 0.17 | 4.28 | 3.74 | 100 | 1009.5 |
| 20260502000704 | 59 | 91 | 2.0 | 5.0 | 0.17 | 4.28 | 3.74 | 100 | 1009.4 |
| 20260502000204 | 59 | 98 | 3.0 | 6.0 | 0.28 | 4.19 | 3.65 | 100 | 1009.5 |
| 20260501235703 | 59 | 90 | 3.0 | 6.0 | 0.28 | 4.19 | 3.65 | 99 | 1009.6 |
| 20260501235204 | 60 | 107 | 5.0 | 8.0 | 0.28 | 4.19 | 3.65 | 100 | 1009.4 |
| 20260501234704 | 60 | 103 | 4.0 | 6.0 | 0.28 | 4.19 | 3.65 | 100 | 1008.8 |
| 20260501234204 | 60 | 100 | 4.0 | 7.0 | 0.28 | 4.19 | 3.65 | 100 | 1008.4 |
| 20260501233703 | 60 | 89 | 5.0 | 6.0 | 0.28 | 4.19 | 3.65 | 100 | 1008.3 |
| 20260501232204 | 60 | 111 | 3.0 | 5.0 | 0.10 | 4.11 | 3.57 | 100 | 1009.4 |
| 20260501231204 | 61 | 97 | 3.0 | 3.0 | 0.10 | 4.11 | 3.57 | 100 | 1009.1 |
| 20260501230704 | 60 | 83 | 2.0 | 3.0 | 0.10 | 4.11 | 3.57 | 100 | 1008.7 |
| 20260501230204 | 61 | 86 | 3.0 | 5.0 | 0.08 | 3.91 | 3.37 | 100 | 1008.3 |
| 20260501225704 | 61 | 87 | 2.0 | 3.0 | 0.02 | 3.91 | 3.37 | 100 | 1008.5 |
| 20260501224203 | 61 | 105 | 2.0 | 3.0 | 0.30 | 3.91 | 3.37 | 100 | 1008.4 |
| 20260501223704 | 61 | 80 | 3.0 | 5.0 | 0.30 | 3.91 | 3.37 | 100 | 1008.4 |
| 20260501223205 | 61 | 50 | 3.0 | 5.0 | 0.30 | 3.91 | 3.37 | 100 | 1008.2 |
| 20260501222704 | 61 | 67 | 3.0 | 6.0 | 0.30 | 3.91 | 3.37 | 100 | 1008.3 |
| 20260501222205 | 61 | 73 | 3.0 | 5.0 | 0.39 | 3.91 | 3.47 | 100 | 1008.5 |
| 20260501221704 | 62 | 63 | 3.0 | 5.0 | 0.40 | 3.91 | 3.47 | 100 | 1008.6 |
| 20260501221204 | 62 | 66 | 3.0 | 5.0 | 0.33 | 3.91 | 3.47 | 100 | 1008.5 |
| 20260501220704 | 62 | 97 | 3.0 | 5.0 | 0.33 | 3.91 | 3.47 | 100 | 1008.3 |
| 20260501220204 | 62 | 112 | 3.0 | 3.0 | 0.25 | 3.82 | 3.38 | 100 | 1008.8 |
| 20260501215703 | 62 | 113 | 3.0 | 5.0 | 0.38 | 3.79 | 3.35 | 100 | 1009.1 |
| 20260501214704 | 62 | 107 | 3.0 | 6.0 | 0.10 | 3.51 | 3.07 | 100 | 1008.7 |
| 20260501214204 | 62 | 117 | 6.0 | 7.0 | 0.10 | 3.51 | 3.07 | 100 | 1008.8 |
| 20260501213204 | 62 | 108 | 5.0 | 7.0 | 0.36 | 3.51 | 3.07 | 100 | 1008.7 |
| 20260501212704 | 62 | 111 | 5.0 | 6.0 | 0.36 | 3.51 | 3.07 | 100 | 1008.8 |
| 20260501211703 | 62 | 100 | 3.0 | 3.0 | 0.35 | 3.50 | 3.07 | 100 | 1008.4 |
| 20260501211204 | 62 | 101 | 3.0 | 3.0 | 0.43 | 3.50 | 3.14 | 100 | 1008.3 |
| 20260501210704 | 62 | 111 | 3.0 | 5.0 | 0.43 | 3.50 | 3.14 | 100 | 1007.9 |
| 20260501210204 | 62 | 98 | 3.0 | 3.0 | 0.43 | 3.50 | 3.14 | 100 | 1007.4 |
| 20260501205704 | 62 | 123 | 3.0 | 3.0 | 0.32 | 3.33 | 2.97 | 100 | 1007.2 |
| 20260501204704 | 62 | 120 | 3.0 | 6.0 | 0.43 | 3.33 | 2.97 | 100 | 1007.3 |
| 20260501204204 | 62 | 98 | 3.0 | 5.0 | 0.43 | 3.33 | 2.97 | 100 | 1007.6 |
| 20260501202704 | 63 | 204 | 16.0 | 40.0 | 0.46 | 2.85 | 2.71 | 100 | 1008.0 |
| 20260501202204 | 62 | 159 | 20.0 | 51.0 | 0.46 | 2.85 | 2.71 | 100 | 1008.4 |
| 20260501201703 | 62 | 156 | 10.0 | 51.0 | 0.46 | 2.85 | 2.71 | 100 | 1007.6 |
| 20260501201204 | 62 | 175 | 5.0 | 49.0 | 0.48 | 2.85 | 2.71 | 100 | 1006.7 |
| 20260501200205 | 63 | 164 | 5.0 | 40.0 | 0.48 | 2.85 | 2.71 | 100 | 1006.8 |
| 20260501195704 | 63 | 176 | 3.0 | 7.0 | 0.42 | 2.79 | 2.65 | 100 | 1007.2 |
| 20260501195203 | 63 | 178 | 3.0 | 5.0 | 0.36 | 2.72 | 2.59 | 100 | 1007.1 |
| 20260501194704 | 63 | 172 | 3.0 | 6.0 | 0.67 | 2.68 | 2.54 | 100 | 1007.3 |
| 20260501194204 | 63 | 177 | 3.0 | 28.0 | 0.67 | 2.68 | 2.54 | 100 | 1007.1 |
| 20260501192704 | 63 | 137 | 3.0 | 5.0 | 0.49 | 2.39 | 2.25 | 100 | 1006.9 |
| 20260501192204 | 62 | 180 | 3.0 | 5.0 | 0.50 | 2.39 | 2.26 | 100 | 1007.2 |
| 20260501191704 | 62 | 171 | 2.0 | 5.0 | 0.67 | 2.38 | 2.25 | 100 | 1007.3 |
| 20260501190204 | 63 | 178 | 2.0 | 5.0 | 0.70 | 2.36 | 2.23 | 100 | 1006.4 |
| 20260501185704 | 63 | 166 | 3.0 | 5.0 | 0.80 | 2.36 | 2.23 | 100 | 1007.1 |
| 20260501184705 | 63 | 192 | 3.0 | 7.0 | 0.44 | 2.00 | 1.87 | 100 | 1008.4 |
| 20260501184204 | 63 | 213 | 3.0 | 7.0 | 0.45 | 2.00 | 1.87 | 100 | 1009.7 |
| 20260501183703 | 63 | 198 | 2.0 | 5.0 | 0.32 | 1.89 | 1.76 | 100 | 1007.7 |
| 20260501183204 | 63 | 222 | 2.0 | 3.0 | 0.32 | 1.89 | 1.76 | 100 | 1006.3 |
| 20260501181704 | 63 | 180 | 2.0 | 5.0 | 0.45 | 1.71 | 1.58 | 99 | 1007.9 |
| 20260501181204 | 63 | 180 | 2.0 | 2.0 | 0.42 | 1.68 | 1.55 | 99 | 1008.7 |
| 20260501180704 | 63 | 34 | 1.0 | 3.0 | 0.42 | 1.68 | 1.55 | 99 | 1008.0 |
| 20260501180204 | 63 | 124 | 2.0 | 7.0 | 0.39 | 1.66 | 1.53 | 99 | 1007.3 |
| 20260501175704 | 63 | 218 | 1.0 | 7.0 | 0.30 | 1.56 | 1.43 | 99 | 1007.3 |
| 20260501175204 | 63 | 182 | 1.0 | 3.0 | 0.30 | 1.56 | 1.43 | 99 | 1007.9 |
| 20260501174203 | 63 | 247 | 2.0 | 6.0 | 0.29 | 1.56 | 1.43 | 99 | 1008.5 |
| 20260501173704 | 63 | 175 | 1.0 | 2.0 | 0.28 | 1.56 | 1.44 | 100 | 1007.8 |
| 20260501173204 | 63 | 355 | 2.0 | 6.0 | 0.28 | 1.56 | 1.44 | 99 | 1008.0 |